Weather at Minikey Airport

Public forecast

Using degrees Fahrenheit for public forecast. Weather courtesy of forecast.io.

Closest aviation weather report (METAR) to Minikey Airport

Closest report is Ionia County Airport, 13.4 nm (24.9 km) S. Retrieved 2020/09/18 13:50 UTC (33 minutes ago):

KY70 181350Z AUTO 03009KT 10SM CLR 08/01 A3035 RMK AO2

Closest aviation forecast (TAF) to Minikey Airport

Closest forecast is Gerald R. Ford International Airport, 26.3 nm (48.8 km) SW. Retrieved 2020/09/18 12:42 UTC (2 hours ago):

TAF KGRR 181140Z 1812/1912 02008KT P6SM SKC FM181500 03010KT P6SM SKC FM182300 03004KT P6SM SKC